sensor_id;sensor_type;location;lat;lon;timestamp;P1;durP1;ratioP1;P2;durP2;ratioP2
76065;SDS011;64763;48.928;8.474;2024-02-16T00:01:00;12.65;;;7.00;;
76065;SDS011;64763;48.928;8.474;2024-02-16T00:03:26;12.30;;;6.43;;
76065;SDS011;64763;48.928;8.474;2024-02-16T00:05:52;14.25;;;7.18;;
76065;SDS011;64763;48.928;8.474;2024-02-16T00:08:18;11.13;;;5.97;;
76065;SDS011;64763;48.928;8.474;2024-02-16T00:10:44;10.27;;;6.05;;
76065;SDS011;64763;48.928;8.474;2024-02-16T00:13:09;11.88;;;5.30;;
76065;SDS011;64763;48.928;8.474;2024-02-16T00:15:34;12.38;;;6.15;;
76065;SDS011;64763;48.928;8.474;2024-02-16T00:18:00;11.55;;;5.85;;
76065;SDS011;64763;48.928;8.474;2024-02-16T00:20:25;10.13;;;5.03;;
76065;SDS011;64763;48.928;8.474;2024-02-16T00:22:50;9.15;;;4.93;;
76065;SDS011;64763;48.928;8.474;2024-02-16T00:25:16;7.03;;;4.50;;
76065;SDS011;64763;48.928;8.474;2024-02-16T00:27:43;7.85;;;3.88;;
76065;SDS011;64763;48.928;8.474;2024-02-16T00:30:08;6.82;;;3.42;;
76065;SDS011;64763;48.928;8.474;2024-02-16T00:32:35;6.47;;;3.33;;
76065;SDS011;64763;48.928;8.474;2024-02-16T00:35:02;7.75;;;3.38;;
76065;SDS011;64763;48.928;8.474;2024-02-16T00:37:27;5.80;;;3.40;;
76065;SDS011;64763;48.928;8.474;2024-02-16T00:39:53;7.65;;;3.60;;
76065;SDS011;64763;48.928;8.474;2024-02-16T00:42:20;6.00;;;3.80;;
76065;SDS011;64763;48.928;8.474;2024-02-16T00:44:46;6.57;;;3.85;;
76065;SDS011;64763;48.928;8.474;2024-02-16T00:47:15;7.38;;;3.50;;
76065;SDS011;64763;48.928;8.474;2024-02-16T00:49:41;6.75;;;3.50;;
76065;SDS011;64763;48.928;8.474;2024-02-16T00:52:07;8.93;;;4.15;;
76065;SDS011;64763;48.928;8.474;2024-02-16T00:54:32;11.05;;;4.38;;
76065;SDS011;64763;48.928;8.474;2024-02-16T00:56:57;11.77;;;3.83;;
76065;SDS011;64763;48.928;8.474;2024-02-16T00:59:27;9.73;;;4.25;;
76065;SDS011;64763;48.928;8.474;2024-02-16T01:01:52;9.15;;;4.95;;
76065;SDS011;64763;48.928;8.474;2024-02-16T01:04:18;8.55;;;4.38;;
76065;SDS011;64763;48.928;8.474;2024-02-16T01:06:43;6.32;;;3.60;;
76065;SDS011;64763;48.928;8.474;2024-02-16T01:09:09;8.80;;;4.38;;
76065;SDS011;64763;48.928;8.474;2024-02-16T01:11:34;11.10;;;5.57;;
76065;SDS011;64763;48.928;8.474;2024-02-16T01:13:59;11.82;;;5.10;;
76065;SDS011;64763;48.928;8.474;2024-02-16T01:16:25;7.03;;;3.58;;
76065;SDS011;64763;48.928;8.474;2024-02-16T01:18:50;6.05;;;2.88;;
76065;SDS011;64763;48.928;8.474;2024-02-16T01:21:15;5.03;;;2.70;;
76065;SDS011;64763;48.928;8.474;2024-02-16T01:23:41;4.40;;;2.80;;
76065;SDS011;64763;48.928;8.474;2024-02-16T01:26:06;5.63;;;2.90;;
76065;SDS011;64763;48.928;8.474;2024-02-16T01:28:32;5.85;;;2.45;;
76065;SDS011;64763;48.928;8.474;2024-02-16T01:30:57;4.55;;;2.45;;
76065;SDS011;64763;48.928;8.474;2024-02-16T01:33:23;3.47;;;2.20;;
76065;SDS011;64763;48.928;8.474;2024-02-16T01:35:48;5.32;;;2.55;;
76065;SDS011;64763;48.928;8.474;2024-02-16T01:38:13;3.75;;;2.25;;
76065;SDS011;64763;48.928;8.474;2024-02-16T01:40:39;5.03;;;2.60;;
76065;SDS011;64763;48.928;8.474;2024-02-16T01:43:05;3.58;;;2.42;;
76065;SDS011;64763;48.928;8.474;2024-02-16T01:45:30;3.63;;;2.38;;
76065;SDS011;64763;48.928;8.474;2024-02-16T01:47:55;4.18;;;2.53;;
76065;SDS011;64763;48.928;8.474;2024-02-16T01:50:21;4.63;;;2.40;;
76065;SDS011;64763;48.928;8.474;2024-02-16T01:52:47;7.03;;;2.35;;
76065;SDS011;64763;48.928;8.474;2024-02-16T01:55:13;4.72;;;2.47;;
76065;SDS011;64763;48.928;8.474;2024-02-16T01:57:40;4.28;;;2.47;;
76065;SDS011;64763;48.928;8.474;2024-02-16T02:00:07;4.82;;;2.60;;
76065;SDS011;64763;48.928;8.474;2024-02-16T02:02:33;4.38;;;2.83;;
76065;SDS011;64763;48.928;8.474;2024-02-16T02:04:59;3.20;;;2.50;;
76065;SDS011;64763;48.928;8.474;2024-02-16T02:07:25;3.47;;;1.95;;
76065;SDS011;64763;48.928;8.474;2024-02-16T02:09:54;3.72;;;2.42;;
76065;SDS011;64763;48.928;8.474;2024-02-16T02:12:20;6.03;;;2.83;;
76065;SDS011;64763;48.928;8.474;2024-02-16T02:14:45;4.53;;;2.50;;
76065;SDS011;64763;48.928;8.474;2024-02-16T02:17:14;3.58;;;2.15;;
76065;SDS011;64763;48.928;8.474;2024-02-16T02:19:39;4.95;;;2.42;;
76065;SDS011;64763;48.928;8.474;2024-02-16T02:22:08;4.70;;;2.30;;
76065;SDS011;64763;48.928;8.474;2024-02-16T02:24:39;3.53;;;2.20;;
76065;SDS011;64763;48.928;8.474;2024-02-16T02:27:05;3.33;;;2.10;;
76065;SDS011;64763;48.928;8.474;2024-02-16T02:29:30;3.70;;;2.30;;
76065;SDS011;64763;48.928;8.474;2024-02-16T02:31:55;4.10;;;2.58;;
76065;SDS011;64763;48.928;8.474;2024-02-16T02:34:20;5.90;;;2.78;;
76065;SDS011;64763;48.928;8.474;2024-02-16T02:36:46;4.53;;;2.63;;
76065;SDS011;64763;48.928;8.474;2024-02-16T02:39:11;4.93;;;3.05;;
76065;SDS011;64763;48.928;8.474;2024-02-16T02:41:38;5.88;;;2.88;;
76065;SDS011;64763;48.928;8.474;2024-02-16T02:44:04;4.70;;;2.63;;
76065;SDS011;64763;48.928;8.474;2024-02-16T02:46:30;5.65;;;2.70;;
76065;SDS011;64763;48.928;8.474;2024-02-16T02:48:55;6.80;;;3.10;;
76065;SDS011;64763;48.928;8.474;2024-02-16T02:51:20;5.07;;;2.60;;
76065;SDS011;64763;48.928;8.474;2024-02-16T02:53:46;6.18;;;2.90;;
76065;SDS011;64763;48.928;8.474;2024-02-16T02:56:11;4.95;;;2.90;;
76065;SDS011;64763;48.928;8.474;2024-02-16T02:58:38;5.13;;;2.78;;
76065;SDS011;64763;48.928;8.474;2024-02-16T03:01:04;5.43;;;2.90;;
76065;SDS011;64763;48.928;8.474;2024-02-16T03:03:30;6.57;;;2.75;;
76065;SDS011;64763;48.928;8.474;2024-02-16T03:05:55;4.90;;;2.70;;
76065;SDS011;64763;48.928;8.474;2024-02-16T03:08:20;5.20;;;2.70;;
76065;SDS011;64763;48.928;8.474;2024-02-16T03:10:46;5.05;;;2.75;;
76065;SDS011;64763;48.928;8.474;2024-02-16T03:13:11;4.20;;;2.53;;
76065;SDS011;64763;48.928;8.474;2024-02-16T03:15:39;4.28;;;2.25;;
76065;SDS011;64763;48.928;8.474;2024-02-16T03:18:05;4.32;;;2.55;;
76065;SDS011;64763;48.928;8.474;2024-02-16T03:20:33;4.15;;;2.47;;
76065;SDS011;64763;48.928;8.474;2024-02-16T03:22:59;8.07;;;3.10;;
76065;SDS011;64763;48.928;8.474;2024-02-16T03:25:24;4.72;;;3.03;;
76065;SDS011;64763;48.928;8.474;2024-02-16T03:27:51;5.03;;;3.25;;
76065;SDS011;64763;48.928;8.474;2024-02-16T03:30:18;4.40;;;3.10;;
76065;SDS011;64763;48.928;8.474;2024-02-16T03:32:47;5.18;;;2.97;;
76065;SDS011;64763;48.928;8.474;2024-02-16T03:35:13;6.25;;;3.13;;
76065;SDS011;64763;48.928;8.474;2024-02-16T03:37:39;4.70;;;2.65;;
76065;SDS011;64763;48.928;8.474;2024-02-16T03:40:05;5.35;;;3.20;;
76065;SDS011;64763;48.928;8.474;2024-02-16T03:42:30;5.50;;;2.50;;
76065;SDS011;64763;48.928;8.474;2024-02-16T03:44:56;3.78;;;2.58;;
76065;SDS011;64763;48.928;8.474;2024-02-16T03:47:22;4.70;;;2.33;;
76065;SDS011;64763;48.928;8.474;2024-02-16T03:49:48;6.50;;;2.90;;
76065;SDS011;64763;48.928;8.474;2024-02-16T03:52:13;4.90;;;2.13;;
76065;SDS011;64763;48.928;8.474;2024-02-16T03:54:39;5.75;;;2.78;;
76065;SDS011;64763;48.928;8.474;2024-02-16T03:57:04;5.88;;;2.38;;
76065;SDS011;64763;48.928;8.474;2024-02-16T03:59:34;3.92;;;2.45;;
76065;SDS011;64763;48.928;8.474;2024-02-16T04:01:59;2.88;;;1.90;;
76065;SDS011;64763;48.928;8.474;2024-02-16T04:04:25;3.75;;;2.00;;
76065;SDS011;64763;48.928;8.474;2024-02-16T04:06:51;3.42;;;2.17;;
76065;SDS011;64763;48.928;8.474;2024-02-16T04:09:17;4.32;;;2.00;;
76065;SDS011;64763;48.928;8.474;2024-02-16T04:11:42;3.30;;;2.15;;
76065;SDS011;64763;48.928;8.474;2024-02-16T04:14:08;2.83;;;1.92;;
76065;SDS011;64763;48.928;8.474;2024-02-16T04:16:33;3.72;;;2.17;;
76065;SDS011;64763;48.928;8.474;2024-02-16T04:18:58;4.80;;;2.38;;
76065;SDS011;64763;48.928;8.474;2024-02-16T04:21:24;4.22;;;2.33;;
76065;SDS011;64763;48.928;8.474;2024-02-16T04:23:49;3.45;;;2.10;;
76065;SDS011;64763;48.928;8.474;2024-02-16T04:26:14;4.25;;;2.40;;
76065;SDS011;64763;48.928;8.474;2024-02-16T04:28:40;3.20;;;1.95;;
76065;SDS011;64763;48.928;8.474;2024-02-16T04:31:05;2.95;;;2.20;;
76065;SDS011;64763;48.928;8.474;2024-02-16T04:33:31;4.10;;;2.33;;
76065;SDS011;64763;48.928;8.474;2024-02-16T04:35:56;3.55;;;2.47;;
76065;SDS011;64763;48.928;8.474;2024-02-16T04:38:22;3.83;;;2.00;;
76065;SDS011;64763;48.928;8.474;2024-02-16T04:40:47;3.13;;;2.05;;
76065;SDS011;64763;48.928;8.474;2024-02-16T04:43:12;3.08;;;2.40;;
76065;SDS011;64763;48.928;8.474;2024-02-16T04:45:38;3.90;;;2.53;;
76065;SDS011;64763;48.928;8.474;2024-02-16T04:48:03;2.85;;;1.80;;
76065;SDS011;64763;48.928;8.474;2024-02-16T04:50:32;3.03;;;2.30;;
76065;SDS011;64763;48.928;8.474;2024-02-16T04:52:58;2.60;;;1.85;;
76065;SDS011;64763;48.928;8.474;2024-02-16T04:55:24;4.20;;;2.03;;
76065;SDS011;64763;48.928;8.474;2024-02-16T04:57:50;3.63;;;2.05;;
76065;SDS011;64763;48.928;8.474;2024-02-16T05:00:16;5.10;;;2.83;;
76065;SDS011;64763;48.928;8.474;2024-02-16T05:02:41;3.05;;;2.20;;
76065;SDS011;64763;48.928;8.474;2024-02-16T05:05:07;3.50;;;2.13;;
76065;SDS011;64763;48.928;8.474;2024-02-16T05:07:32;4.35;;;2.40;;
76065;SDS011;64763;48.928;8.474;2024-02-16T05:09:58;3.20;;;1.88;;
76065;SDS011;64763;48.928;8.474;2024-02-16T05:12:24;3.97;;;2.13;;
76065;SDS011;64763;48.928;8.474;2024-02-16T05:14:50;2.85;;;2.10;;
76065;SDS011;64763;48.928;8.474;2024-02-16T05:17:16;3.78;;;2.28;;
76065;SDS011;64763;48.928;8.474;2024-02-16T05:19:41;4.60;;;2.20;;
76065;SDS011;64763;48.928;8.474;2024-02-16T05:22:07;4.60;;;2.35;;
76065;SDS011;64763;48.928;8.474;2024-02-16T05:24:35;4.80;;;2.20;;
76065;SDS011;64763;48.928;8.474;2024-02-16T05:27:00;5.28;;;2.97;;
76065;SDS011;64763;48.928;8.474;2024-02-16T05:29:25;4.43;;;2.42;;
76065;SDS011;64763;48.928;8.474;2024-02-16T05:31:51;3.10;;;2.10;;
76065;SDS011;64763;48.928;8.474;2024-02-16T05:34:17;4.10;;;2.47;;
76065;SDS011;64763;48.928;8.474;2024-02-16T05:36:42;5.85;;;2.28;;
76065;SDS011;64763;48.928;8.474;2024-02-16T05:39:08;5.55;;;2.67;;
76065;SDS011;64763;48.928;8.474;2024-02-16T05:41:51;5.50;;;2.33;;
76065;SDS011;64763;48.928;8.474;2024-02-16T05:44:17;3.15;;;1.70;;
76065;SDS011;64763;48.928;8.474;2024-02-16T05:46:43;3.13;;;1.73;;
76065;SDS011;64763;48.928;8.474;2024-02-16T05:49:09;3.63;;;2.22;;
76065;SDS011;64763;48.928;8.474;2024-02-16T05:51:35;4.60;;;2.25;;
76065;SDS011;64763;48.928;8.474;2024-02-16T05:54:01;3.05;;;1.83;;
76065;SDS011;64763;48.928;8.474;2024-02-16T05:56:27;7.20;;;2.00;;
76065;SDS011;64763;48.928;8.474;2024-02-16T05:58:53;4.38;;;2.45;;
76065;SDS011;64763;48.928;8.474;2024-02-16T06:01:19;3.03;;;2.33;;
76065;SDS011;64763;48.928;8.474;2024-02-16T06:03:44;3.53;;;2.15;;
76065;SDS011;64763;48.928;8.474;2024-02-16T06:06:09;2.97;;;1.65;;
76065;SDS011;64763;48.928;8.474;2024-02-16T06:08:35;3.88;;;2.20;;
76065;SDS011;64763;48.928;8.474;2024-02-16T06:14:23;3.08;;;2.10;;
76065;SDS011;64763;48.928;8.474;2024-02-16T06:16:57;4.97;;;2.17;;
76065;SDS011;64763;48.928;8.474;2024-02-16T06:19:22;2.95;;;2.03;;
76065;SDS011;64763;48.928;8.474;2024-02-16T06:21:48;2.90;;;1.95;;
76065;SDS011;64763;48.928;8.474;2024-02-16T06:24:13;3.42;;;2.17;;
76065;SDS011;64763;48.928;8.474;2024-02-16T06:26:38;5.68;;;2.25;;
76065;SDS011;64763;48.928;8.474;2024-02-16T06:29:04;4.47;;;2.92;;
76065;SDS011;64763;48.928;8.474;2024-02-16T06:31:29;4.25;;;2.28;;
76065;SDS011;64763;48.928;8.474;2024-02-16T06:33:55;5.43;;;2.67;;
76065;SDS011;64763;48.928;8.474;2024-02-16T06:36:21;4.93;;;2.35;;
76065;SDS011;64763;48.928;8.474;2024-02-16T06:38:47;4.47;;;2.17;;
76065;SDS011;64763;48.928;8.474;2024-02-16T06:41:12;3.92;;;2.17;;
76065;SDS011;64763;48.928;8.474;2024-02-16T06:43:38;4.82;;;2.40;;
76065;SDS011;64763;48.928;8.474;2024-02-16T06:46:03;3.47;;;2.20;;
76065;SDS011;64763;48.928;8.474;2024-02-16T06:48:30;3.83;;;2.00;;
76065;SDS011;64763;48.928;8.474;2024-02-16T06:50:55;5.05;;;2.78;;
76065;SDS011;64763;48.928;8.474;2024-02-16T06:53:20;6.30;;;3.05;;
76065;SDS011;64763;48.928;8.474;2024-02-16T06:55:46;3.20;;;2.30;;
76065;SDS011;64763;48.928;8.474;2024-02-16T06:58:11;4.47;;;2.90;;
76065;SDS011;64763;48.928;8.474;2024-02-16T07:00:37;4.05;;;2.60;;
76065;SDS011;64763;48.928;8.474;2024-02-16T07:03:02;4.20;;;2.28;;
76065;SDS011;64763;48.928;8.474;2024-02-16T07:05:28;3.63;;;2.83;;
76065;SDS011;64763;48.928;8.474;2024-02-16T07:07:53;4.32;;;2.78;;
76065;SDS011;64763;48.928;8.474;2024-02-16T07:10:19;6.22;;;3.55;;
76065;SDS011;64763;48.928;8.474;2024-02-16T07:12:44;6.63;;;3.25;;
76065;SDS011;64763;48.928;8.474;2024-02-16T07:15:10;4.85;;;2.90;;
76065;SDS011;64763;48.928;8.474;2024-02-16T07:17:37;4.45;;;2.75;;
76065;SDS011;64763;48.928;8.474;2024-02-16T07:20:03;4.60;;;2.75;;
76065;SDS011;64763;48.928;8.474;2024-02-16T07:22:29;6.15;;;2.53;;
76065;SDS011;64763;48.928;8.474;2024-02-16T07:24:55;5.20;;;2.95;;
76065;SDS011;64763;48.928;8.474;2024-02-16T07:27:20;5.10;;;2.83;;
76065;SDS011;64763;48.928;8.474;2024-02-16T07:29:46;5.10;;;2.95;;
76065;SDS011;64763;48.928;8.474;2024-02-16T07:32:11;4.65;;;3.30;;
76065;SDS011;64763;48.928;8.474;2024-02-16T07:34:37;4.32;;;2.90;;
76065;SDS011;64763;48.928;8.474;2024-02-16T07:37:03;4.80;;;3.47;;
76065;SDS011;64763;48.928;8.474;2024-02-16T07:39:29;5.45;;;3.47;;
76065;SDS011;64763;48.928;8.474;2024-02-16T07:41:54;8.00;;;3.50;;
76065;SDS011;64763;48.928;8.474;2024-02-16T07:44:19;6.20;;;3.30;;
76065;SDS011;64763;48.928;8.474;2024-02-16T07:46:45;5.38;;;3.40;;
76065;SDS011;64763;48.928;8.474;2024-02-16T07:49:11;6.15;;;3.97;;
76065;SDS011;64763;48.928;8.474;2024-02-16T07:51:36;7.43;;;3.92;;
76065;SDS011;64763;48.928;8.474;2024-02-16T07:54:02;5.53;;;3.85;;
76065;SDS011;64763;48.928;8.474;2024-02-16T07:56:28;5.55;;;4.28;;
76065;SDS011;64763;48.928;8.474;2024-02-16T07:58:55;7.10;;;4.05;;
76065;SDS011;64763;48.928;8.474;2024-02-16T08:01:21;5.65;;;3.67;;
76065;SDS011;64763;48.928;8.474;2024-02-16T08:03:46;6.43;;;3.45;;
76065;SDS011;64763;48.928;8.474;2024-02-16T08:06:11;6.38;;;4.07;;
76065;SDS011;64763;48.928;8.474;2024-02-16T08:08:37;5.35;;;3.72;;
76065;SDS011;64763;48.928;8.474;2024-02-16T08:11:02;4.72;;;3.33;;
76065;SDS011;64763;48.928;8.474;2024-02-16T08:13:28;5.57;;;3.90;;
76065;SDS011;64763;48.928;8.474;2024-02-16T08:15:53;6.80;;;3.35;;
76065;SDS011;64763;48.928;8.474;2024-02-16T08:18:19;4.43;;;2.97;;
76065;SDS011;64763;48.928;8.474;2024-02-16T08:20:45;4.60;;;2.67;;
76065;SDS011;64763;48.928;8.474;2024-02-16T08:23:10;4.80;;;2.72;;
76065;SDS011;64763;48.928;8.474;2024-02-16T08:25:35;4.88;;;2.90;;
76065;SDS011;64763;48.928;8.474;2024-02-16T08:28:01;5.18;;;2.50;;
76065;SDS011;64763;48.928;8.474;2024-02-16T08:30:27;4.65;;;2.50;;
76065;SDS011;64763;48.928;8.474;2024-02-16T08:32:52;5.43;;;2.67;;
76065;SDS011;64763;48.928;8.474;2024-02-16T08:35:18;4.22;;;2.70;;
76065;SDS011;64763;48.928;8.474;2024-02-16T08:37:44;3.28;;;2.28;;
76065;SDS011;64763;48.928;8.474;2024-02-16T08:40:12;4.05;;;2.65;;
76065;SDS011;64763;48.928;8.474;2024-02-16T08:42:39;5.00;;;2.92;;
76065;SDS011;64763;48.928;8.474;2024-02-16T08:45:07;5.47;;;2.67;;
76065;SDS011;64763;48.928;8.474;2024-02-16T08:47:32;5.30;;;2.63;;
76065;SDS011;64763;48.928;8.474;2024-02-16T08:49:58;4.45;;;2.40;;
76065;SDS011;64763;48.928;8.474;2024-02-16T08:52:23;4.10;;;2.25;;
76065;SDS011;64763;48.928;8.474;2024-02-16T08:54:49;3.97;;;2.63;;
76065;SDS011;64763;48.928;8.474;2024-02-16T08:57:14;5.05;;;2.78;;
76065;SDS011;64763;48.928;8.474;2024-02-16T08:59:39;8.07;;;2.72;;
76065;SDS011;64763;48.928;8.474;2024-02-16T09:02:05;5.70;;;2.55;;
76065;SDS011;64763;48.928;8.474;2024-02-16T09:04:31;5.07;;;2.53;;
76065;SDS011;64763;48.928;8.474;2024-02-16T09:06:56;4.68;;;2.90;;
76065;SDS011;64763;48.928;8.474;2024-02-16T09:09:21;8.15;;;3.63;;
76065;SDS011;64763;48.928;8.474;2024-02-16T09:11:48;6.53;;;3.00;;
76065;SDS011;64763;48.928;8.474;2024-02-16T09:14:16;5.20;;;3.00;;
76065;SDS011;64763;48.928;8.474;2024-02-16T09:16:41;5.03;;;3.30;;
76065;SDS011;64763;48.928;8.474;2024-02-16T09:19:07;4.18;;;2.42;;
76065;SDS011;64763;48.928;8.474;2024-02-16T09:21:32;4.93;;;2.45;;
76065;SDS011;64763;48.928;8.474;2024-02-16T09:23:57;5.78;;;3.03;;
76065;SDS011;64763;48.928;8.474;2024-02-16T09:26:26;4.75;;;2.90;;
76065;SDS011;64763;48.928;8.474;2024-02-16T09:28:55;5.97;;;3.33;;
76065;SDS011;64763;48.928;8.474;2024-02-16T09:31:21;3.95;;;2.28;;
76065;SDS011;64763;48.928;8.474;2024-02-16T09:33:46;5.20;;;2.72;;
76065;SDS011;64763;48.928;8.474;2024-02-16T09:36:11;4.13;;;2.70;;
76065;SDS011;64763;48.928;8.474;2024-02-16T09:38:37;3.63;;;2.15;;
76065;SDS011;64763;48.928;8.474;2024-02-16T09:41:02;4.55;;;2.90;;
76065;SDS011;64763;48.928;8.474;2024-02-16T09:43:29;3.85;;;2.40;;
76065;SDS011;64763;48.928;8.474;2024-02-16T09:45:58;4.18;;;2.60;;
76065;SDS011;64763;48.928;8.474;2024-02-16T09:48:25;3.72;;;2.50;;
76065;SDS011;64763;48.928;8.474;2024-02-16T09:50:53;3.67;;;2.30;;
76065;SDS011;64763;48.928;8.474;2024-02-16T09:53:19;5.82;;;3.05;;
76065;SDS011;64763;48.928;8.474;2024-02-16T09:55:47;4.05;;;2.60;;
76065;SDS011;64763;48.928;8.474;2024-02-16T09:58:13;6.20;;;2.50;;
76065;SDS011;64763;48.928;8.474;2024-02-16T10:00:47;3.88;;;2.42;;
76065;SDS011;64763;48.928;8.474;2024-02-16T10:03:31;3.92;;;2.22;;
76065;SDS011;64763;48.928;8.474;2024-02-16T10:06:06;3.95;;;2.30;;
76065;SDS011;64763;48.928;8.474;2024-02-16T10:08:33;3.97;;;2.30;;
76065;SDS011;64763;48.928;8.474;2024-02-16T10:11:02;3.97;;;2.67;;
76065;SDS011;64763;48.928;8.474;2024-02-16T10:13:29;3.95;;;2.40;;
76065;SDS011;64763;48.928;8.474;2024-02-16T10:16:04;5.03;;;2.50;;
76065;SDS011;64763;48.928;8.474;2024-02-16T10:18:31;3.70;;;2.20;;
76065;SDS011;64763;48.928;8.474;2024-02-16T10:20:56;4.50;;;2.67;;
76065;SDS011;64763;48.928;8.474;2024-02-16T10:23:22;4.78;;;2.67;;
76065;SDS011;64763;48.928;8.474;2024-02-16T10:25:47;5.68;;;3.05;;
76065;SDS011;64763;48.928;8.474;2024-02-16T10:28:13;5.07;;;2.38;;
76065;SDS011;64763;48.928;8.474;2024-02-16T10:30:39;5.15;;;2.17;;
76065;SDS011;64763;48.928;8.474;2024-02-16T10:33:07;6.32;;;2.25;;
76065;SDS011;64763;48.928;8.474;2024-02-16T10:35:36;5.05;;;2.20;;
76065;SDS011;64763;48.928;8.474;2024-02-16T10:38:02;3.92;;;2.25;;
76065;SDS011;64763;48.928;8.474;2024-02-16T10:40:38;6.50;;;2.17;;
76065;SDS011;64763;48.928;8.474;2024-02-16T10:43:04;5.07;;;2.40;;
76065;SDS011;64763;48.928;8.474;2024-02-16T10:45:39;4.20;;;2.00;;
76065;SDS011;64763;48.928;8.474;2024-02-16T10:48:06;4.07;;;2.13;;
76065;SDS011;64763;48.928;8.474;2024-02-16T10:50:35;4.53;;;2.15;;
76065;SDS011;64763;48.928;8.474;2024-02-16T10:53:12;4.53;;;2.15;;
76065;SDS011;64763;48.928;8.474;2024-02-16T10:55:40;7.65;;;2.22;;
76065;SDS011;64763;48.928;8.474;2024-02-16T10:58:10;4.03;;;1.95;;
76065;SDS011;64763;48.928;8.474;2024-02-16T11:00:36;4.55;;;2.00;;
76065;SDS011;64763;48.928;8.474;2024-02-16T11:03:01;4.47;;;2.25;;
76065;SDS011;64763;48.928;8.474;2024-02-16T11:05:35;4.15;;;2.42;;
76065;SDS011;64763;48.928;8.474;2024-02-16T11:08:04;3.60;;;2.22;;
76065;SDS011;64763;48.928;8.474;2024-02-16T11:10:30;6.32;;;2.40;;
76065;SDS011;64763;48.928;8.474;2024-02-16T11:13:03;6.00;;;2.20;;
76065;SDS011;64763;48.928;8.474;2024-02-16T11:15:32;3.53;;;1.88;;
76065;SDS011;64763;48.928;8.474;2024-02-16T11:18:01;2.60;;;1.90;;
76065;SDS011;64763;48.928;8.474;2024-02-16T11:20:28;2.92;;;2.13;;
76065;SDS011;64763;48.928;8.474;2024-02-16T11:22:53;5.50;;;2.33;;
76065;SDS011;64763;48.928;8.474;2024-02-16T11:25:32;4.85;;;2.10;;
76065;SDS011;64763;48.928;8.474;2024-02-16T11:27:58;3.90;;;1.85;;
76065;SDS011;64763;48.928;8.474;2024-02-16T11:30:24;3.85;;;2.22;;
76065;SDS011;64763;48.928;8.474;2024-02-16T11:32:51;4.65;;;2.55;;
76065;SDS011;64763;48.928;8.474;2024-02-16T11:35:16;5.20;;;2.22;;
76065;SDS011;64763;48.928;8.474;2024-02-16T11:37:42;4.00;;;1.85;;
76065;SDS011;64763;48.928;8.474;2024-02-16T11:40:10;5.47;;;2.08;;
76065;SDS011;64763;48.928;8.474;2024-02-16T11:42:37;3.05;;;1.90;;
76065;SDS011;64763;48.928;8.474;2024-02-16T11:45:02;3.22;;;1.80;;
76065;SDS011;64763;48.928;8.474;2024-02-16T11:47:28;4.38;;;2.65;;
76065;SDS011;64763;48.928;8.474;2024-02-16T11:52:36;7.43;;;2.65;;
76065;SDS011;64763;48.928;8.474;2024-02-16T11:55:02;3.95;;;1.98;;
76065;SDS011;64763;48.928;8.474;2024-02-16T11:57:28;4.55;;;2.20;;
76065;SDS011;64763;48.928;8.474;2024-02-16T11:59:54;4.20;;;2.10;;
76065;SDS011;64763;48.928;8.474;2024-02-16T12:02:20;3.33;;;2.00;;
76065;SDS011;64763;48.928;8.474;2024-02-16T12:04:57;6.80;;;2.38;;
76065;SDS011;64763;48.928;8.474;2024-02-16T12:07:25;4.03;;;1.90;;
76065;SDS011;64763;48.928;8.474;2024-02-16T12:10:24;3.80;;;2.28;;
76065;SDS011;64763;48.928;8.474;2024-02-16T12:12:42;5.85;;;2.28;;
76065;SDS011;64763;48.928;8.474;2024-02-16T12:15:07;6.78;;;2.83;;
76065;SDS011;64763;48.928;8.474;2024-02-16T12:17:33;5.65;;;2.10;;
76065;SDS011;64763;48.928;8.474;2024-02-16T12:19:59;5.97;;;2.30;;
76065;SDS011;64763;48.928;8.474;2024-02-16T12:22:24;4.20;;;2.33;;
76065;SDS011;64763;48.928;8.474;2024-02-16T12:24:50;2.97;;;1.98;;
76065;SDS011;64763;48.928;8.474;2024-02-16T12:27:16;5.82;;;2.78;;
76065;SDS011;64763;48.928;8.474;2024-02-16T12:29:41;4.05;;;2.55;;
76065;SDS011;64763;48.928;8.474;2024-02-16T12:32:07;3.70;;;2.17;;
76065;SDS011;64763;48.928;8.474;2024-02-16T12:34:34;3.90;;;2.25;;
76065;SDS011;64763;48.928;8.474;2024-02-16T12:37:00;3.67;;;2.50;;
76065;SDS011;64763;48.928;8.474;2024-02-16T12:39:25;6.10;;;2.60;;
76065;SDS011;64763;48.928;8.474;2024-02-16T12:41:51;5.25;;;2.03;;
76065;SDS011;64763;48.928;8.474;2024-02-16T12:44:16;2.63;;;1.80;;
76065;SDS011;64763;48.928;8.474;2024-02-16T12:46:42;5.45;;;2.25;;
76065;SDS011;64763;48.928;8.474;2024-02-16T12:49:08;6.55;;;2.60;;
76065;SDS011;64763;48.928;8.474;2024-02-16T12:51:33;4.47;;;2.17;;
76065;SDS011;64763;48.928;8.474;2024-02-16T12:53:59;3.45;;;2.10;;
76065;SDS011;64763;48.928;8.474;2024-02-16T12:56:25;4.00;;;2.15;;
76065;SDS011;64763;48.928;8.474;2024-02-16T12:58:51;4.00;;;2.33;;
76065;SDS011;64763;48.928;8.474;2024-02-16T13:01:16;2.50;;;1.77;;
76065;SDS011;64763;48.928;8.474;2024-02-16T13:03:43;4.13;;;1.90;;
76065;SDS011;64763;48.928;8.474;2024-02-16T13:06:09;4.93;;;2.13;;
76065;SDS011;64763;48.928;8.474;2024-02-16T13:08:35;4.32;;;2.15;;
76065;SDS011;64763;48.928;8.474;2024-02-16T13:11:02;4.60;;;2.40;;
76065;SDS011;64763;48.928;8.474;2024-02-16T13:13:28;6.80;;;2.38;;
76065;SDS011;64763;48.928;8.474;2024-02-16T13:15:53;4.15;;;2.20;;
76065;SDS011;64763;48.928;8.474;2024-02-16T13:18:21;5.07;;;2.30;;
76065;SDS011;64763;48.928;8.474;2024-02-16T13:20:49;4.28;;;2.30;;
76065;SDS011;64763;48.928;8.474;2024-02-16T13:23:15;5.88;;;1.95;;
76065;SDS011;64763;48.928;8.474;2024-02-16T13:25:40;6.05;;;2.20;;
76065;SDS011;64763;48.928;8.474;2024-02-16T13:28:06;4.82;;;2.38;;
76065;SDS011;64763;48.928;8.474;2024-02-16T13:30:31;3.35;;;2.00;;
76065;SDS011;64763;48.928;8.474;2024-02-16T13:32:57;5.10;;;2.15;;
76065;SDS011;64763;48.928;8.474;2024-02-16T13:35:23;3.58;;;2.22;;
76065;SDS011;64763;48.928;8.474;2024-02-16T13:37:48;5.72;;;1.80;;
76065;SDS011;64763;48.928;8.474;2024-02-16T13:40:14;3.38;;;1.80;;
76065;SDS011;64763;48.928;8.474;2024-02-16T13:42:39;3.47;;;2.10;;
76065;SDS011;64763;48.928;8.474;2024-02-16T13:45:05;3.30;;;1.90;;
76065;SDS011;64763;48.928;8.474;2024-02-16T13:47:31;4.55;;;2.05;;
76065;SDS011;64763;48.928;8.474;2024-02-16T13:49:57;3.40;;;1.95;;
76065;SDS011;64763;48.928;8.474;2024-02-16T13:52:24;5.15;;;2.03;;
76065;SDS011;64763;48.928;8.474;2024-02-16T13:54:50;4.65;;;1.95;;
76065;SDS011;64763;48.928;8.474;2024-02-16T13:57:15;3.33;;;2.10;;
76065;SDS011;64763;48.928;8.474;2024-02-16T13:59:44;7.38;;;2.17;;
76065;SDS011;64763;48.928;8.474;2024-02-16T14:02:10;6.50;;;2.10;;
76065;SDS011;64763;48.928;8.474;2024-02-16T14:04:36;7.40;;;2.47;;
76065;SDS011;64763;48.928;8.474;2024-02-16T14:07:02;3.92;;;2.28;;
76065;SDS011;64763;48.928;8.474;2024-02-16T14:09:27;7.65;;;2.40;;
76065;SDS011;64763;48.928;8.474;2024-02-16T14:11:53;4.25;;;2.10;;
76065;SDS011;64763;48.928;8.474;2024-02-16T14:14:20;4.53;;;2.67;;
76065;SDS011;64763;48.928;8.474;2024-02-16T14:16:45;3.83;;;1.80;;
76065;SDS011;64763;48.928;8.474;2024-02-16T14:19:11;5.28;;;1.90;;
76065;SDS011;64763;48.928;8.474;2024-02-16T14:21:36;3.20;;;2.03;;
76065;SDS011;64763;48.928;8.474;2024-02-16T14:24:01;3.60;;;2.00;;
76065;SDS011;64763;48.928;8.474;2024-02-16T14:26:27;5.75;;;2.30;;
76065;SDS011;64763;48.928;8.474;2024-02-16T14:28:53;3.70;;;2.20;;
76065;SDS011;64763;48.928;8.474;2024-02-16T14:31:20;5.68;;;2.30;;
76065;SDS011;64763;48.928;8.474;2024-02-16T14:33:46;5.38;;;2.33;;
76065;SDS011;64763;48.928;8.474;2024-02-16T14:36:12;4.82;;;2.13;;
76065;SDS011;64763;48.928;8.474;2024-02-16T14:38:37;5.03;;;2.30;;
76065;SDS011;64763;48.928;8.474;2024-02-16T14:41:03;3.58;;;1.83;;
76065;SDS011;64763;48.928;8.474;2024-02-16T14:43:32;4.25;;;2.45;;
76065;SDS011;64763;48.928;8.474;2024-02-16T14:45:58;4.32;;;2.00;;
76065;SDS011;64763;48.928;8.474;2024-02-16T14:48:23;4.82;;;2.30;;